Time;durP1;ratioP1;P1;durP2;ratioP2;P2;SDS_P1;SDS_P2;PMS_P1;PMS_P2;Temp;Humidity;BMP_temperature;BMP_pressure;BME280_temperature;BME280_humidity;BME280_pressure;Samples;Min_cycle;Max_cycle;Signal;HPM_P1;HPM_P2
2022/07/02 00:00:19;;;;;;;3.78;3.25;;;14.30;81.70;;;13.00;100.00;96729.34;4952897;28;20038;-69
2022/07/02 00:02:47;;;;;;;3.42;2.70;;;14.30;81.60;;;12.98;100.00;96731.38;4964414;28;20058;-69
2022/07/02 00:05:13;;;;;;;3.15;2.72;;;14.30;80.90;;;12.94;100.00;96735.38;4937707;28;20415;-69
2022/07/02 00:07:39;;;;;;;3.88;2.53;;;14.20;80.80;;;12.89;100.00;96728.81;4969380;28;20086;-69
2022/07/02 00:10:05;;;;;;;2.80;2.45;;;14.10;81.30;;;12.85;100.00;96738.13;4964468;28;20047;-69
2022/07/02 00:12:31;;;;;;;3.45;2.50;;;14.10;81.40;;;12.82;100.00;96741.16;4937355;28;20031;-69
2022/07/02 00:14:58;;;;;;;3.10;2.70;;;14.00;80.90;;;12.80;100.00;96740.53;4954488;28;20127;-68
2022/07/02 00:17:24;;;;;;;3.03;2.35;;;14.10;81.00;;;12.78;100.00;96741.72;4968634;28;20043;-69
2022/07/02 00:19:51;;;;;;;3.20;2.10;;;14.10;81.00;;;12.74;100.00;96736.00;4953588;28;20067;-68
2022/07/02 00:22:16;;;;;;;3.47;2.22;;;14.00;80.90;;;12.71;100.00;96739.00;4950617;28;20023;-69
2022/07/02 00:24:42;;;;;;;2.80;2.55;;;13.90;80.90;;;12.67;100.00;96739.53;4960097;28;20138;-69
2022/07/02 00:27:09;;;;;;;3.67;3.20;;;13.90;81.20;;;12.63;100.00;96733.81;4951091;28;20419;-69
2022/07/02 00:30:02;;;;;;;3.28;2.97;;;13.80;81.50;;;12.62;100.00;96736.66;4941464;28;20035;-68
2022/07/02 00:32:30;;;;;;;3.63;2.83;;;13.80;81.90;;;12.59;100.00;96740.47;4939963;28;20198;-69
2022/07/02 00:34:57;;;;;;;3.25;2.95;;;13.80;81.60;;;12.55;100.00;96740.03;4959586;28;20035;-70
2022/07/02 00:37:26;;;;;;;4.03;2.70;;;13.80;81.50;;;12.52;100.00;96736.97;4931611;28;20495;-69
2022/07/02 00:39:53;;;;;;;5.63;2.70;;;13.70;81.60;;;12.48;100.00;96730.44;4951279;28;20191;-69
2022/07/02 00:42:19;;;;;;;2.88;2.35;;;13.70;81.10;;;12.45;100.00;96742.16;4936913;28;20043;-69
2022/07/02 00:44:45;;;;;;;3.85;3.00;;;13.70;81.10;;;12.42;100.00;96734.59;4966261;28;20045;-69
2022/07/02 00:47:11;;;;;;;5.13;2.67;;;13.60;80.90;;;12.41;100.00;96738.25;4965077;28;20123;-69
2022/07/02 00:49:37;;;;;;;3.35;2.83;;;13.60;81.10;;;12.38;100.00;96735.97;4952510;28;20109;-69
2022/07/02 00:52:04;;;;;;;5.90;3.45;;;13.60;81.20;;;12.34;100.00;96739.16;4968050;28;20042;-68
2022/07/02 00:54:30;;;;;;;5.40;3.58;;;13.60;81.40;;;12.32;100.00;96733.25;4953123;28;20450;-69
2022/07/02 00:56:56;;;;;;;7.00;4.07;;;13.60;81.80;;;12.32;100.00;96742.00;4961899;28;20098;-68
2022/07/02 00:59:22;;;;;;;5.20;4.30;;;13.60;81.90;;;12.30;100.00;96738.72;4939275;28;20445;-68
2022/07/02 01:01:49;;;;;;;4.75;4.15;;;13.60;82.00;;;12.30;100.00;96730.81;4964723;28;20096;-68
2022/07/02 01:04:15;;;;;;;4.80;4.07;;;13.60;82.10;;;12.27;100.00;96724.09;4936371;28;20540;-69
2022/07/02 01:06:42;;;;;;;5.30;4.68;;;13.60;82.10;;;12.26;100.00;96722.44;4949978;28;20031;-69
2022/07/02 01:11:54;;;;;;;4.10;3.70;;;13.50;82.40;;;12.21;100.00;96719.53;4952199;28;20037;-69
2022/07/02 01:14:20;;;;;;;4.10;3.70;;;13.50;82.50;;;12.19;100.00;96721.53;4949713;28;20272;-69
2022/07/02 01:16:46;;;;;;;3.40;3.10;;;13.50;82.70;;;12.17;100.00;96718.25;4945628;28;20066;-68
2022/07/02 01:19:15;;;;;;;3.03;2.80;;;13.40;82.90;;;12.17;100.00;96728.00;4946752;28;20043;-69
2022/07/02 01:22:17;;;;;;;3.15;2.85;;;13.50;82.70;;;12.17;100.00;96728.81;4932822;28;20035;-69
2022/07/02 01:24:44;;;;;;;2.58;2.38;;;13.50;82.30;;;12.15;100.00;96715.00;4966625;28;20095;-68
2022/07/02 01:27:09;;;;;;;4.10;2.90;;;13.40;82.30;;;12.15;100.00;96720.25;4935362;28;20095;-69
2022/07/02 01:29:35;;;;;;;3.05;2.75;;;13.40;82.10;;;12.13;100.00;96711.72;4951120;28;20035;-70
2022/07/02 01:32:02;;;;;;;7.57;3.00;;;13.40;82.00;;;12.09;100.00;96710.47;4962154;28;20509;-69
2022/07/02 01:34:28;;;;;;;5.05;2.50;;;13.40;81.60;;;12.05;100.00;96708.38;4954166;28;20126;-69
2022/07/02 01:36:54;;;;;;;2.88;2.63;;;13.30;81.80;;;12.03;100.00;96708.56;4949621;28;20038;-68
2022/07/02 01:39:23;;;;;;;3.80;2.70;;;13.30;81.80;;;12.02;100.00;96706.94;4950273;28;20526;-69
2022/07/02 01:41:49;;;;;;;3.47;2.28;;;13.30;81.90;;;11.97;100.00;96706.63;4949971;28;20059;-69
2022/07/02 01:44:15;;;;;;;2.63;2.10;;;13.20;81.70;;;11.94;100.00;96712.28;4941347;28;21841;-69
2022/07/02 01:46:41;;;;;;;2.42;2.03;;;13.20;81.50;;;11.91;100.00;96708.19;4942109;29;20073;-69
2022/07/02 01:49:06;;;;;;;4.03;1.45;;;13.20;81.50;;;11.90;100.00;96706.56;4959113;28;20086;-69
2022/07/02 01:51:32;;;;;;;4.10;2.08;;;13.10;81.30;;;11.88;100.00;96702.47;4951353;28;20050;-68
2022/07/02 01:53:58;;;;;;;4.05;1.92;;;13.10;81.10;;;11.86;100.00;96712.38;4949296;28;20090;-68
2022/07/02 01:56:24;;;;;;;2.28;1.80;;;13.10;81.30;;;11.84;100.00;96707.28;4948809;28;20058;-69
2022/07/02 01:58:49;;;;;;;4.28;2.60;;;13.10;81.50;;;11.84;100.00;96711.75;4953565;28;20065;-69
2022/07/02 02:01:15;;;;;;;5.07;2.90;;;13.10;81.90;;;11.84;100.00;96712.56;4962999;28;20058;-68
2022/07/02 02:03:41;;;;;;;3.72;2.55;;;13.10;82.00;;;11.83;100.00;96715.38;4969406;28;20031;-70
2022/07/02 02:06:06;;;;;;;3.20;2.72;;;13.10;82.10;;;11.81;100.00;96706.84;4967024;28;20126;-69
2022/07/02 02:08:32;;;;;;;3.92;2.67;;;13.10;82.20;;;11.80;100.00;96715.75;4950359;28;20113;-68
2022/07/02 02:10:58;;;;;;;4.35;2.95;;;13.10;82.20;;;11.79;100.00;96714.09;4968011;28;20055;-68
2022/07/02 02:13:23;;;;;;;3.72;2.80;;;13.10;82.30;;;11.78;100.00;96715.09;4964736;28;20292;-68
2022/07/02 02:15:49;;;;;;;3.20;2.90;;;13.10;82.10;;;11.76;100.00;96706.50;4940451;28;20035;-69
2022/07/02 02:18:16;;;;;;;3.80;2.60;;;13.10;82.10;;;11.74;100.00;96713.78;4964241;28;20049;-68
2022/07/02 02:20:42;;;;;;;4.68;3.00;;;13.10;82.00;;;11.73;100.00;96714.78;4948987;28;20032;-68
2022/07/02 02:23:08;;;;;;;3.88;2.92;;;13.10;81.90;;;11.71;100.00;96712.31;4949926;28;20032;-68
2022/07/02 02:25:34;;;;;;;12.00;3.42;;;13.00;82.10;;;11.66;100.00;96714.69;4932663;28;20716;-68
2022/07/02 02:27:59;;;;;;;4.68;3.13;;;12.90;82.00;;;11.62;100.00;96716.88;4929473;28;20583;-68
2022/07/02 02:30:25;;;;;;;2.50;2.25;;;12.90;82.10;;;11.61;100.00;96715.25;4937655;29;20594;-68
2022/07/02 02:32:51;;;;;;;6.30;2.55;;;12.90;82.20;;;11.59;100.00;96714.59;4944111;28;20073;-69
2022/07/02 02:35:17;;;;;;;5.57;2.67;;;12.90;82.10;;;11.57;100.00;96726.31;4953139;28;20380;-69
2022/07/02 02:37:43;;;;;;;3.35;2.40;;;12.80;82.20;;;11.55;100.00;96723.06;4937508;28;20031;-68
2022/07/02 02:40:09;;;;;;;5.55;2.35;;;12.80;82.50;;;11.54;100.00;96722.22;4937767;28;20115;-69
2022/07/02 02:42:34;;;;;;;10.40;2.25;;;12.90;82.40;;;11.56;100.00;96736.03;4933417;28;20062;-69
2022/07/02 02:45:00;;;;;;;5.55;2.00;;;12.90;82.10;;;11.54;100.00;96732.78;4965022;28;20035;-69
2022/07/02 02:47:26;;;;;;;3.92;2.53;;;12.90;82.00;;;11.50;100.00;96731.47;4967780;28;20151;-69
2022/07/02 02:49:52;;;;;;;4.80;2.53;;;12.70;82.10;;;11.45;100.00;96733.81;4969763;28;20023;-69
2022/07/02 02:52:18;;;;;;;3.90;2.92;;;12.70;82.40;;;11.45;100.00;96733.00;4966743;28;20046;-69
2022/07/02 02:54:44;;;;;;;15.98;3.03;;;12.70;82.70;;;11.45;100.00;96733.00;4931891;29;20032;-69
2022/07/02 02:57:10;;;;;;;6.38;2.90;;;12.70;83.00;;;11.43;100.00;96735.00;4947979;28;20112;-69
2022/07/02 02:59:36;;;;;;;7.00;2.92;;;12.70;83.20;;;11.45;100.00;96738.28;4954596;28;20098;-69
2022/07/02 03:02:02;;;;;;;13.30;3.30;;;12.80;83.30;;;11.44;100.00;96736.63;4964130;28;20082;-69
2022/07/02 03:04:28;;;;;;;6.68;3.25;;;12.70;83.50;;;11.43;100.00;96745.53;4950671;28;20078;-69
2022/07/02 03:06:53;;;;;;;4.82;2.90;;;12.70;83.70;;;11.44;100.00;96748.00;4951659;28;20066;-70
2022/07/02 03:09:19;;;;;;;13.60;3.20;;;12.80;83.70;;;11.46;100.00;96740.72;4969828;28;20039;-69
2022/07/02 03:11:45;;;;;;;6.93;3.15;;;12.80;83.50;;;11.48;100.00;96738.72;4964472;28;20073;-68
2022/07/02 03:14:11;;;;;;;5.57;3.30;;;12.80;83.80;;;11.49;100.00;96745.63;4951491;28;20047;-69
2022/07/02 03:16:36;;;;;;;17.13;3.55;;;12.90;83.70;;;11.46;100.00;96746.00;4949895;28;20062;-67
2022/07/02 03:19:02;;;;;;;9.25;7.70;;;12.70;83.60;;;11.45;100.00;96748.81;4949488;28;20081;-66
2022/07/02 03:21:28;;;;;;;4.57;3.60;;;12.80;83.60;;;11.47;100.00;96760.00;4952671;28;20466;-67
2022/07/02 03:23:54;;;;;;;4.03;3.30;;;12.90;83.60;;;11.47;100.00;96760.00;4934731;28;20471;-64
2022/07/02 03:26:19;;;;;;;3.33;2.78;;;12.80;83.60;;;11.45;100.00;96762.81;4964932;28;20542;-67
2022/07/02 03:28:45;;;;;;;3.28;2.92;;;12.80;83.50;;;11.45;100.00;96754.09;4947246;28;20143;-68
2022/07/02 03:31:11;;;;;;;4.00;2.97;;;12.90;83.50;;;11.47;100.00;96763.44;4953951;28;20570;-68
2022/07/02 03:33:38;;;;;;;2.95;2.55;;;12.90;83.30;;;11.46;100.00;96769.72;4966080;28;20066;-68
2022/07/02 03:36:04;;;;;;;11.60;3.05;;;12.80;83.00;;;11.46;100.00;96766.25;4950301;28;20039;-68
2022/07/02 03:38:30;;;;;;;3.65;2.70;;;12.80;82.90;;;11.43;100.00;96764.81;4950695;28;20392;-68
2022/07/02 03:40:56;;;;;;;13.05;3.17;;;12.80;83.10;;;11.43;100.00;96767.44;4950991;28;20085;-68
2022/07/02 03:43:21;;;;;;;5.95;3.15;;;12.80;83.20;;;11.43;100.00;96772.69;4968210;28;20452;-68
2022/07/02 03:45:47;;;;;;;3.55;2.17;;;12.80;83.40;;;11.45;100.00;96767.25;4969945;28;20198;-68
2022/07/02 03:48:13;;;;;;;12.25;2.50;;;12.90;83.20;;;11.46;100.00;96777.63;4937307;28;20113;-68
2022/07/02 03:50:40;;;;;;;5.28;2.08;;;12.90;83.00;;;11.48;100.00;96774.81;4951987;28;20062;-68
2022/07/02 03:53:06;;;;;;;3.83;2.10;;;12.90;83.00;;;11.50;100.00;96770.16;4969301;28;20460;-68
2022/07/02 03:55:32;;;;;;;7.20;1.95;;;13.00;82.70;;;11.50;100.00;96770.97;4968114;28;20039;-68
2022/07/02 03:57:58;;;;;;;3.20;2.30;;;12.90;82.80;;;11.48;100.00;96767.72;4952312;28;20475;-68
2022/07/02 04:00:24;;;;;;;16.50;2.58;;;12.90;82.90;;;11.48;100.00;96767.72;4949123;28;20833;-68
2022/07/02 04:02:49;;;;;;;2.80;2.50;;;13.00;82.80;;;11.48;100.00;96765.06;4969445;28;20045;-68
2022/07/02 04:05:15;;;;;;;6.53;3.00;;;12.90;83.30;;;11.47;100.00;96770.53;4966852;28;20490;-68
2022/07/02 04:07:41;;;;;;;4.05;2.53;;;12.80;83.20;;;11.43;100.00;96772.69;4950580;28;20074;-68
2022/07/02 04:10:07;;;;;;;5.00;2.67;;;12.90;83.30;;;11.46;100.00;96776.78;4952890;28;20562;-68
2022/07/02 04:12:33;;;;;;;7.78;2.75;;;12.90;83.20;;;11.49;100.00;96771.97;4956935;28;20125;-68
2022/07/02 04:14:59;;;;;;;45.78;3.17;;;13.00;83.20;;;11.50;100.00;96773.63;4936926;28;20035;-68
2022/07/02 04:17:25;;;;;;;3.78;2.83;;;12.90;82.90;;;11.50;100.00;96768.34;4967378;28;20968;-68
2022/07/02 04:19:50;;;;;;;4.72;2.97;;;13.00;83.40;;;11.54;100.00;96769.66;4950900;28;20624;-69
2022/07/02 04:22:16;;;;;;;5.95;2.80;;;13.10;83.30;;;11.59;100.00;96769.94;4967509;28;20042;-69
2022/07/02 04:24:42;;;;;;;14.82;3.20;;;13.10;83.40;;;11.61;100.00;96764.50;4969881;28;20050;-68
2022/07/02 04:27:08;;;;;;;4.90;2.80;;;13.10;83.00;;;11.64;100.00;96772.03;4937302;28;20074;-69
2022/07/02 04:29:33;;;;;;;3.55;2.55;;;13.10;83.10;;;11.68;100.00;96767.22;4968611;28;20090;-68
2022/07/02 04:31:59;;;;;;;5.57;3.10;;;13.20;83.10;;;11.70;100.00;96773.94;4968247;28;20031;-68
2022/07/02 04:34:25;;;;;;;3.00;2.70;;;13.20;82.70;;;11.74;100.00;96769.94;4953881;28;20593;-66
2022/07/02 04:36:51;;;;;;;3.25;2.95;;;13.30;82.90;;;11.78;100.00;96778.34;4936101;29;20031;-66
2022/07/02 04:39:16;;;;;;;22.13;3.75;;;13.30;83.00;;;11.80;100.00;96771.09;4935489;28;20047;-68
2022/07/02 04:41:42;;;;;;;3.90;3.53;;;13.30;82.70;;;11.82;100.00;96766.47;4952276;28;20051;-67
2022/07/02 04:44:08;;;;;;;6.80;3.65;;;13.40;83.20;;;11.87;100.00;96772.81;4920444;28;20546;-67
2022/07/02 04:46:33;;;;;;;4.15;3.30;;;13.50;83.00;;;11.92;100.00;96767.81;4959628;28;20062;-67
2022/07/02 04:48:59;;;;;;;3.30;3.00;;;13.60;82.70;;;11.98;100.00;96766.28;4968071;28;20117;-67
2022/07/02 04:51:25;;;;;;;7.20;3.08;;;13.60;82.70;;;12.03;100.00;96769.22;4967307;28;20203;-67
2022/07/02 04:53:51;;;;;;;3.33;3.00;;;13.70;82.40;;;12.08;100.00;96766.84;4951905;28;20567;-67
2022/07/02 04:56:16;;;;;;;5.63;3.55;;;13.70;82.20;;;12.12;100.00;96772.56;4935843;28;20577;-67
2022/07/02 04:58:42;;;;;;;3.78;3.28;;;13.70;81.90;;;12.12;100.00;96767.28;4935648;28;20074;-67
2022/07/02 05:01:08;;;;;;;9.95;3.35;;;13.70;81.90;;;12.12;100.00;96768.09;4952421;28;20518;-67
2022/07/02 05:03:34;;;;;;;8.68;3.80;;;13.70;81.70;;;12.14;100.00;96771.38;4938283;28;20046;-67
2022/07/02 05:05:59;;;;;;;3.42;3.13;;;13.70;81.90;;;12.17;100.00;96771.00;4954883;28;20067;-67
2022/07/02 05:08:26;;;;;;;3.63;3.25;;;13.80;81.90;;;12.22;100.00;96779.22;4938284;28;20062;-67
2022/07/02 05:10:53;;;;;;;10.73;3.80;;;13.80;81.70;;;12.24;100.00;96777.22;4961149;28;20039;-67
2022/07/02 05:13:19;;;;;;;8.77;3.85;;;13.80;81.80;;;12.27;100.00;96776.84;4967956;28;20035;-67
2022/07/02 05:15:45;;;;;;;5.03;3.88;;;13.90;82.00;;;12.31;100.00;96776.47;4970647;28;20043;-67
2022/07/02 05:18:11;;;;;;;4.00;3.60;;;14.00;82.10;;;12.36;100.00;96774.91;4935088;29;20523;-67
2022/07/02 05:20:37;;;;;;;4.05;3.60;;;14.10;82.10;;;12.45;100.00;96783.56;4935599;28;20038;-67
2022/07/02 05:23:03;;;;;;;3.95;3.55;;;14.20;82.20;;;12.54;100.00;96772.72;4935386;28;20076;-67
2022/07/02 05:25:29;;;;;;;11.95;3.97;;;14.30;81.70;;;12.62;100.00;96774.41;4945407;28;20097;-66
2022/07/02 05:27:54;;;;;;;5.10;4.15;;;14.30;81.30;;;12.64;100.00;96769.78;4970152;28;20043;-67
2022/07/02 05:30:20;;;;;;;4.45;3.80;;;14.40;81.30;;;12.70;100.00;96768.25;4970359;28;20114;-67
2022/07/02 05:32:46;;;;;;;7.22;3.92;;;14.50;81.40;;;12.76;100.00;96765.66;4954577;28;20054;-67
2022/07/02 05:35:12;;;;;;;6.53;4.30;;;14.50;81.30;;;12.83;100.00;96766.53;4957542;28;20124;-68
2022/07/02 05:37:37;;;;;;;4.45;4.05;;;14.60;81.50;;;12.94;100.00;96767.06;4950655;28;20170;-68
2022/07/02 05:40:04;;;;;;;7.70;4.68;;;14.70;81.30;;;13.02;100.00;96764.31;4955004;28;20538;-67
2022/07/02 05:42:30;;;;;;;4.35;3.95;;;14.90;80.80;;;13.11;100.00;96773.72;4934183;29;20824;-67
2022/07/02 05:44:56;;;;;;;5.03;4.53;;;15.00;81.00;;;13.18;100.00;96772.84;4936707;28;20032;-67
2022/07/02 05:47:21;;;;;;;7.40;4.25;;;15.10;80.50;;;13.28;100.00;96769.88;4968124;28;20122;-67
2022/07/02 05:49:47;;;;;;;4.82;4.32;;;15.10;80.20;;;13.35;100.00;96770.78;4961265;28;20153;-67
2022/07/02 05:52:14;;;;;;;4.60;4.18;;;15.30;80.00;;;13.41;100.00;96771.84;4950905;28;20035;-67
2022/07/02 05:54:40;;;;;;;4.82;4.32;;;15.20;79.50;;;13.51;100.00;96771.50;4935250;28;20042;-67
2022/07/02 05:57:06;;;;;;;5.40;4.90;;;15.40;79.60;;;13.59;100.00;96776.66;4934945;28;20118;-66
2022/07/02 05:59:31;;;;;;;5.50;4.07;;;15.50;79.60;;;13.66;100.00;96772.25;4918327;28;20071;-67
2022/07/02 06:01:57;;;;;;;5.93;4.65;;;15.60;79.30;;;13.73;100.00;96773.09;4966724;28;20085;-67
2022/07/02 06:04:23;;;;;;;5.60;4.38;;;15.70;79.20;;;13.82;100.00;96771.97;4968891;28;20457;-67
2022/07/02 06:09:33;;;;;;;5.78;5.28;;;15.90;78.90;;;13.97;100.00;96785.88;4969168;28;20146;-67
2022/07/02 06:12:00;;;;;;;5.15;4.63;;;15.90;78.60;;;13.99;100.00;96778.56;4953726;28;20062;-67
2022/07/02 06:14:26;;;;;;;11.35;6.10;;;15.90;78.50;;;14.07;100.00;96791.66;4969690;28;20089;-67
2022/07/02 06:16:51;;;;;;;7.47;6.78;;;16.00;77.90;;;14.13;100.00;96783.97;4968843;28;20458;-68
2022/07/02 06:19:17;;;;;;;5.88;5.22;;;16.10;78.20;;;14.20;100.00;96787.44;4969948;28;20514;-68
2022/07/02 06:21:43;;;;;;;8.05;6.38;;;16.10;77.70;;;14.23;100.00;96784.41;4953754;28;20038;-67
2022/07/02 06:24:10;;;;;;;9.85;6.65;;;16.10;77.80;;;14.27;100.00;96786.50;4971042;28;20089;-67
2022/07/02 06:26:35;;;;;;;7.93;7.13;;;16.20;77.80;;;14.35;100.00;96788.97;4969543;28;20081;-67
2022/07/02 06:29:01;;;;;;;5.93;5.10;;;16.50;78.00;;;14.45;100.00;96785.16;4953513;28;20109;-67
2022/07/02 06:31:27;;;;;;;9.15;7.22;;;16.40;76.90;;;14.56;100.00;96784.63;4949459;28;20510;-67
2022/07/02 06:33:52;;;;;;;6.50;5.82;;;16.60;77.30;;;14.62;100.00;96787.28;4966449;28;20418;-66
2022/07/02 06:36:21;;;;;;;5.35;4.65;;;16.60;76.50;;;14.64;100.00;96797.69;4952442;28;20581;-65
2022/07/02 06:38:48;;;;;;;5.18;4.68;;;16.60;76.10;;;14.65;100.00;96792.19;4936320;28;20189;-66
2022/07/02 06:43:58;;;;;;;11.82;10.60;;;16.70;75.90;;;14.84;100.00;96781.88;4964530;28;20116;-66
2022/07/02 06:46:24;;;;;;;5.30;4.80;;;17.10;75.80;;;14.98;100.00;96788.88;4933006;28;20498;-66
2022/07/02 06:48:50;;;;;;;4.40;4.00;;;17.30;74.90;;;15.13;100.00;96789.50;4949723;28;20077;-69
2022/07/02 06:51:15;;;;;;;5.70;4.47;;;17.40;74.80;;;15.28;100.00;96790.16;4944931;28;20122;-70
2022/07/02 06:53:42;;;;;;;5.00;4.50;;;17.60;74.30;;;15.44;100.00;96794.25;4951314;28;20035;-70
2022/07/02 06:56:07;;;;;;;4.88;4.38;;;17.70;74.40;;;15.56;100.00;96794.47;4966851;28;20409;-72
2022/07/02 06:58:33;;;;;;;5.40;4.50;;;17.70;74.00;;;15.71;100.00;96800.44;4933089;28;20062;-71
2022/07/02 07:00:59;;;;;;;9.98;8.18;;;18.10;73.60;;;15.85;100.00;96795.94;4934289;28;20063;-69
2022/07/02 07:03:25;;;;;;;11.27;10.23;;;18.40;72.70;;;16.00;100.00;96790.41;4932707;28;20379;-70
2022/07/02 07:05:52;;;;;;;8.57;6.70;;;18.70;71.70;;;16.19;100.00;96802.84;4950268;28;20059;-69
2022/07/02 07:08:18;;;;;;;13.73;12.15;;;19.10;70.50;;;16.41;100.00;96792.78;4947801;28;20084;-69
2022/07/02 07:10:44;;;;;;;12.25;10.30;;;19.60;69.40;;;16.63;100.00;96793.34;4968534;28;20034;-69
2022/07/02 07:13:10;;;;;;;8.35;6.25;;;19.90;67.70;;;16.84;99.43;96795.72;4951219;28;20027;-67
2022/07/02 07:15:36;;;;;;;17.27;15.25;;;20.20;66.90;;;17.05;99.60;96782.13;4948211;28;20040;-66
2022/07/02 07:18:01;;;;;;;11.38;9.68;;;20.40;66.90;;;17.29;99.29;96782.41;4969018;28;20086;-67
2022/07/02 07:20:29;;;;;;;4.70;4.10;;;20.70;66.70;;;17.50;96.74;96786.56;4952290;28;20038;-68
2022/07/02 07:22:55;;;;;;;3.97;3.58;;;20.60;64.70;;;17.61;96.71;96784.00;4937536;28;20038;-66
2022/07/02 07:25:21;;;;;;;5.25;3.90;;;20.60;66.40;;;17.77;94.91;96784.56;4952095;28;20093;-68
2022/07/02 07:27:48;;;;;;;3.80;3.33;;;20.60;66.00;;;17.87;93.94;96779.53;4967349;28;20086;-68
2022/07/02 07:30:13;;;;;;;4.03;3.42;;;20.70;65.50;;;18.09;94.06;96787.94;4967789;28;20140;-66
2022/07/02 07:32:39;;;;;;;3.20;2.90;;;21.20;65.10;;;18.25;93.62;96782.88;4953241;28;20058;-66
2022/07/02 07:35:05;;;;;;;3.25;2.95;;;21.40;63.80;;;18.38;91.60;96786.44;4970227;28;20336;-67
2022/07/02 07:37:31;;;;;;;4.88;2.70;;;21.60;62.40;;;18.51;91.07;96780.97;4951239;28;20051;-69
2022/07/02 07:39:57;;;;;;;3.58;2.90;;;21.90;61.20;;;18.68;90.00;96776.69;4934990;28;20086;-66
2022/07/02 07:42:23;;;;;;;3.60;2.80;;;22.10;60.20;;;18.83;89.90;96774.47;4933474;28;20073;-67
2022/07/02 07:44:49;;;;;;;3.35;2.60;;;22.30;59.90;;;18.95;89.35;96766.50;4954318;28;20035;-68
2022/07/02 07:47:15;;;;;;;3.72;2.90;;;22.60;60.40;;;19.11;88.45;96770.41;4965087;28;20297;-67
2022/07/02 07:49:41;;;;;;;3.40;3.10;;;22.70;59.70;;;19.26;87.75;96768.16;4985575;28;20058;-67
2022/07/02 07:52:07;;;;;;;3.55;3.08;;;22.90;58.80;;;19.41;87.11;96763.19;4970756;28;20098;-68
2022/07/02 07:54:33;;;;;;;3.40;3.10;;;23.20;58.30;;;19.54;85.42;96773.72;4968768;28;20038;-67
2022/07/02 07:56:58;;;;;;;3.05;2.47;;;23.10;56.60;;;19.69;85.90;96777.78;4933615;28;20035;-67
2022/07/02 07:59:24;;;;;;;5.35;4.35;;;23.40;56.90;;;19.82;84.70;96777.59;4952195;28;20430;-67
2022/07/02 08:01:50;;;;;;;4.10;2.33;;;23.50;56.10;;;20.03;83.76;96774.34;4969586;28;20059;-67
2022/07/02 08:04:16;;;;;;;2.95;2.05;;;23.90;56.40;;;20.22;83.80;96780.38;4950908;28;20533;-67
2022/07/02 08:06:42;;;;;;;2.97;1.48;;;24.10;55.70;;;20.42;82.48;96772.03;4967378;28;20067;-67
2022/07/02 08:09:07;;;;;;;1.48;1.10;;;24.20;53.60;;;20.55;79.63;96769.09;4970178;28;20024;-67
2022/07/02 08:11:33;;;;;;;3.88;1.58;;;24.20;51.70;;;20.71;78.53;96776.41;4968703;28;20137;-67
2022/07/02 08:13:59;;;;;;;4.40;4.00;;;24.50;51.50;;;20.92;79.08;96771.47;4951029;28;20087;-66
2022/07/02 08:16:25;;;;;;;2.72;2.00;;;24.80;52.10;;;21.12;77.05;96769.19;4966876;28;20505;-66
2022/07/02 08:18:50;;;;;;;2.90;2.20;;;25.00;51.10;;;21.28;77.28;96765.78;4950445;28;20061;-67
2022/07/02 08:21:16;;;;;;;2.33;1.70;;;25.30;50.60;;;21.47;75.43;96761.00;4969590;28;20114;-67
2022/07/02 08:23:42;;;;;;;4.47;3.42;;;25.50;49.20;;;21.69;74.79;96755.72;4951205;28;20043;-66
2022/07/02 08:26:08;;;;;;;7.20;5.10;;;25.90;48.10;;;21.91;73.01;96763.84;4950620;28;20070;-67
2022/07/02 08:28:33;;;;;;;5.65;2.20;;;26.10;47.30;;;22.11;71.36;96758.03;4951316;28;20034;-68
2022/07/02 08:31:00;;;;;;;2.80;1.92;;;26.30;45.20;;;22.24;69.95;96752.31;4952738;28;20473;-67
2022/07/02 08:33:26;;;;;;;3.03;2.00;;;26.30;44.30;;;22.38;68.56;96748.22;4966106;28;20054;-68
2022/07/02 08:35:52;;;;;;;3.42;2.45;;;26.50;44.00;;;22.44;67.46;96749.94;4964629;28;20530;-66
2022/07/02 08:38:18;;;;;;;3.70;2.45;;;26.30;43.80;;;22.59;67.40;96750.09;4951895;28;20034;-67
2022/07/02 08:40:44;;;;;;;2.60;1.73;;;26.60;44.50;;;22.77;66.23;96750.84;4966859;28;20054;-67
2022/07/02 08:43:13;;;;;;;2.70;1.90;;;26.80;42.60;;;22.95;64.04;96763.19;4954148;28;20019;-67
2022/07/02 08:45:41;;;;;;;3.28;1.58;;;27.00;43.60;;;23.12;64.83;96745.94;4982720;28;20604;-68
2022/07/02 08:48:08;;;;;;;2.83;1.92;;;27.10;42.20;;;23.34;64.37;96751.25;4954733;28;20031;-67
2022/07/02 08:50:34;;;;;;;3.90;2.10;;;27.40;41.90;;;23.46;63.71;96737.66;4953833;28;20031;-66
2022/07/02 08:53:00;;;;;;;2.85;2.00;;;27.40;42.60;;;23.69;63.53;96747.28;4968314;28;20086;-65
2022/07/02 08:55:26;;;;;;;2.30;1.85;;;27.70;40.80;;;23.90;62.80;96748.25;4947138;28;20071;-65
2022/07/02 08:57:52;;;;;;;3.33;1.95;;;27.70;40.90;;;24.10;61.87;96735.78;4951496;28;20166;-65
2022/07/02 09:00:20;;;;;;;1.65;1.33;;;27.90;40.40;;;24.37;59.82;96738.38;4952798;28;20054;-65
2022/07/02 09:02:46;;;;;;;4.82;3.55;;;28.10;40.90;;;24.62;59.84;96720.72;4948421;28;20057;-65
2022/07/02 09:05:12;;;;;;;4.72;1.90;;;28.10;39.30;;;24.83;58.99;96727.81;4935069;28;20050;-66
2022/07/02 09:07:39;;;;;;;3.90;1.40;;;28.30;40.00;;;25.02;58.19;96723.59;4965884;28;20043;-66
2022/07/02 09:10:05;;;;;;;1.88;1.10;;;28.50;39.50;;;25.08;57.21;96720.91;4953142;28;20105;-66
2022/07/02 09:12:31;;;;;;;1.20;0.98;;;28.30;39.10;;;25.28;56.73;96715.56;4938545;28;20117;-66
2022/07/02 09:14:57;;;;;;;3.60;1.70;;;28.60;38.90;;;25.57;56.96;96714.00;4952038;28;20058;-66
2022/07/02 09:17:23;;;;;;;2.13;1.20;;;29.00;40.40;;;25.81;55.32;96714.28;4950395;28;20041;-67
2022/07/02 09:19:48;;;;;;;2.35;2.03;;;29.10;37.10;;;25.91;55.54;96708.88;4935142;28;20058;-67
2022/07/02 09:22:14;;;;;;;2.17;1.50;;;29.00;38.60;;;26.10;53.83;96701.03;4965614;28;20062;-66
2022/07/02 09:24:45;;;;;;;3.05;1.80;;;29.20;37.60;;;26.34;54.01;96700.41;4950059;28;20038;-67
2022/07/02 09:27:12;;;;;;;2.28;1.00;;;29.60;37.60;;;26.51;51.91;96712.53;4951524;28;20403;-67
2022/07/02 09:29:47;;;;;;;1.98;0.90;;;29.60;36.20;;;26.74;48.09;96703.00;4946035;28;20046;-66
2022/07/02 09:32:13;;;;;;;2.15;1.17;;;30.00;35.70;;;26.94;51.26;96704.78;4947419;28;20033;-66
2022/07/02 09:34:50;;;;;;;1.77;0.80;;;30.10;36.70;;;27.14;48.03;96701.97;4947237;28;20042;-66
2022/07/02 09:37:24;;;;;;;1.70;0.73;;;30.40;35.80;;;27.29;47.53;96700.28;4945641;28;20031;-66
2022/07/02 09:39:51;;;;;;;7.43;3.75;;;30.60;35.50;;;27.51;50.06;96706.06;4947583;28;20917;-66
2022/07/02 09:42:25;;;;;;;1.83;1.27;;;31.00;35.00;;;27.71;44.53;96702.41;4968892;28;20451;-66
2022/07/02 09:44:51;;;;;;;0.63;0.50;;;31.20;33.20;;;27.81;46.13;96705.00;4949527;28;20034;-66
2022/07/02 09:47:17;;;;;;;1.10;0.57;;;31.00;31.90;;;27.81;46.40;96694.19;4949050;28;20462;-66
2022/07/02 09:49:49;;;;;;;1.00;0.40;;;31.20;32.50;;;27.98;41.82;96697.28;4962054;28;20550;-67
2022/07/02 09:52:16;;;;;;;2.08;0.50;;;31.40;31.70;;;28.07;44.94;96689.38;4951437;28;20041;-66
2022/07/02 09:54:42;;;;;;;0.88;0.40;;;31.40;32.60;;;28.24;44.30;96688.91;4963875;28;20067;-67
2022/07/02 09:57:11;;;;;;;1.13;0.50;;;31.60;30.70;;;28.44;44.10;96682.50;4950306;28;20095;-66
2022/07/02 09:59:38;;;;;;;3.20;2.35;;;32.00;31.80;;;28.54;44.45;96685.09;4934753;28;20125;-67
2022/07/02 10:02:04;;;;;;;6.55;4.85;;;32.20;32.40;;;28.78;44.46;96672.31;4936439;28;20442;-67
2022/07/02 10:04:31;;;;;;;1.83;0.90;;;32.70;31.50;;;29.05;44.84;96665.47;4950933;28;20042;-67
2022/07/02 10:06:58;;;;;;;0.82;0.40;;;33.10;32.00;;;29.36;44.63;96665.81;4950522;28;20457;-67
2022/07/02 10:09:25;;;;;;;0.50;0.30;;;33.60;30.60;;;29.69;44.29;96659.34;4949362;28;20200;-67
2022/07/02 10:11:51;;;;;;;1.10;0.73;;;34.00;29.20;;;30.00;43.67;96664.22;4947592;28;20114;-67
2022/07/02 10:14:18;;;;;;;1.00;0.50;;;34.30;28.10;;;30.16;42.23;96652.81;4950149;28;20126;-67
2022/07/02 10:16:44;;;;;;;3.10;1.75;;;34.10;27.20;;;30.23;41.74;96655.13;4964606;28;20394;-67